Time;durP1;ratioP1;P1;durP2;ratioP2;P2;SDS_P1;SDS_P2;PMS_P1;PMS_P2;Temp;Humidity;BMP_temperature;BMP_pressure;BME280_temperature;BME280_humidity;BME280_pressure;Samples;Min_cycle;Max_cycle;Signal;HPM_P1;HPM_P2
2022/07/20 00:00:29;;;;;;;13.30;4.97;;;26.50;50.20;;;;;;5011889;28;20071;-75
2022/07/20 00:02:55;;;;;;;10.57;4.75;;;26.50;49.70;;;;;;5005686;28;20397;-76
2022/07/20 00:05:20;;;;;;;9.00;4.70;;;26.50;49.40;;;;;;5003455;28;20030;-75
2022/07/20 00:07:46;;;;;;;14.30;4.90;;;26.60;49.10;;;;;;4999303;28;20411;-75
2022/07/20 00:12:56;;;;;;;12.70;5.30;;;26.60;48.90;;;;;;5009513;28;20037;-75
2022/07/20 00:15:21;;;;;;;9.27;4.72;;;26.60;49.10;;;;;;5010625;28;20030;-75
2022/07/20 00:17:47;;;;;;;10.32;4.75;;;26.50;49.30;;;;;;5009913;28;20026;-76
2022/07/20 00:20:12;;;;;;;13.68;5.10;;;26.40;49.70;;;;;;4993975;28;20402;-76
2022/07/20 00:22:38;;;;;;;10.00;4.78;;;26.40;49.90;;;;;;5001964;28;20031;-75
2022/07/20 00:25:04;;;;;;;11.23;4.53;;;26.30;50.10;;;;;;5004655;28;20023;-76
2022/07/20 00:27:30;;;;;;;15.60;4.88;;;26.30;50.50;;;;;;4992993;28;20278;-75
2022/07/20 00:29:56;;;;;;;13.43;5.20;;;26.20;51.00;;;;;;4994070;28;20018;-75
2022/07/20 00:32:22;;;;;;;10.65;4.78;;;26.10;51.40;;;;;;4996882;28;20097;-75
2022/07/20 00:34:48;;;;;;;11.38;4.65;;;26.00;51.70;;;;;;4991546;28;20026;-76
2022/07/20 00:37:13;;;;;;;12.13;5.10;;;25.90;51.90;;;;;;4997946;28;20042;-75
2022/07/20 00:39:39;;;;;;;8.82;4.65;;;25.90;52.30;;;;;;4991935;28;20058;-76
2022/07/20 00:42:05;;;;;;;7.15;4.63;;;25.80;52.80;;;;;;4997920;28;20041;-74
2022/07/20 00:44:30;;;;;;;10.32;4.72;;;25.70;53.10;;;;;;5005686;28;20262;-75
2022/07/20 00:46:56;;;;;;;12.60;4.88;;;25.60;53.60;;;;;;5005254;28;20022;-75
2022/07/20 00:49:22;;;;;;;12.25;5.32;;;25.50;53.80;;;;;;5010088;28;20466;-75
2022/07/20 00:51:48;;;;;;;9.35;4.95;;;25.50;54.10;;;;;;5003101;28;20323;-74
2022/07/20 00:54:14;;;;;;;9.50;5.03;;;25.40;54.30;;;;;;5006680;28;20429;-75
2022/07/20 00:56:40;;;;;;;12.35;4.90;;;25.30;54.70;;;;;;5001213;28;20041;-75
2022/07/20 00:59:07;;;;;;;6.90;4.88;;;25.30;54.90;;;;;;5009329;28;20058;-75
2022/07/20 01:01:33;;;;;;;6.10;4.88;;;25.20;54.70;;;;;;5003447;28;20030;-75
2022/07/20 01:03:59;;;;;;;9.80;5.30;;;25.20;55.00;;;;;;5014169;28;20030;-75
2022/07/20 01:06:25;;;;;;;8.38;5.13;;;25.20;54.80;;;;;;5014279;28;20029;-75
2022/07/20 01:08:51;;;;;;;11.73;5.18;;;25.10;55.20;;;;;;5009092;28;20037;-75
2022/07/20 01:11:17;;;;;;;15.75;5.50;;;25.10;53.90;;;;;;5007019;28;20034;-75
2022/07/20 01:13:43;;;;;;;12.20;5.35;;;25.20;53.10;;;;;;5005392;28;20111;-74
2022/07/20 01:16:09;;;;;;;13.63;5.40;;;25.30;52.70;;;;;;5013877;28;20512;-75
2022/07/20 01:18:35;;;;;;;14.65;5.50;;;25.40;52.30;;;;;;5008439;28;20038;-75
2022/07/20 01:21:07;;;;;;;11.68;5.47;;;25.50;52.10;;;;;;4996168;28;20026;-75
2022/07/20 01:23:33;;;;;;;13.98;5.72;;;25.50;52.00;;;;;;5012856;28;20077;-75
2022/07/20 01:25:59;;;;;;;13.60;5.35;;;25.60;52.60;;;;;;5002198;28;20132;-75
2022/07/20 01:28:26;;;;;;;9.80;6.03;;;25.60;52.30;;;;;;5008092;28;20026;-75
2022/07/20 01:30:52;;;;;;;12.95;6.63;;;25.60;52.90;;;;;;5006084;28;20026;-75
2022/07/20 01:33:18;;;;;;;17.23;8.43;;;25.50;54.50;;;;;;5013930;28;20116;-75
2022/07/20 01:35:44;;;;;;;22.65;10.60;;;25.40;56.40;;;;;;5014004;28;20026;-75
2022/07/20 01:38:09;;;;;;;31.77;12.70;;;25.30;60.50;;;;;;5010773;28;20544;-75
2022/07/20 01:40:35;;;;;;;27.25;14.13;;;25.10;62.60;;;;;;4995419;28;20045;-75
2022/07/20 01:43:00;;;;;;;30.17;15.60;;;25.00;65.60;;;;;;5011413;28;20033;-74
2022/07/20 01:45:26;;;;;;;40.92;17.98;;;24.90;68.00;;;;;;5013885;28;20459;-75
2022/07/20 01:47:52;;;;;;;36.28;18.40;;;24.70;70.60;;;;;;5007508;28;20026;-75
2022/07/20 01:50:17;;;;;;;40.05;20.23;;;24.60;72.20;;;;;;5012011;28;20030;-74
2022/07/20 01:52:43;;;;;;;35.10;20.75;;;24.50;74.80;;;;;;5031030;28;20089;-74
2022/07/20 01:55:09;;;;;;;44.20;22.65;;;24.40;77.90;;;;;;5006716;28;20025;-75
2022/07/20 01:57:35;;;;;;;45.70;23.42;;;24.30;82.40;;;;;;5011605;28;20413;-75
2022/07/20 02:00:00;;;;;;;45.63;24.98;;;24.30;88.60;;;;;;5010467;28;20434;-75
2022/07/20 02:02:26;;;;;;;48.88;25.40;;;24.10;93.30;;;;;;5012812;28;20061;-75
2022/07/20 02:04:51;;;;;;;47.30;25.10;;;24.10;96.90;;;;;;5009881;28;20027;-74
2022/07/20 02:07:17;;;;;;;48.88;25.92;;;24.00;99.80;;;;;;5008029;28;20022;-75
2022/07/20 02:09:42;;;;;;;45.60;25.83;;;24.00;99.90;;;;;;5004162;28;20030;-74
2022/07/20 02:12:08;;;;;;;51.28;25.88;;;23.90;99.90;;;;;;5005208;28;20395;-75
2022/07/20 02:14:34;;;;;;;48.08;27.42;;;23.90;99.90;;;;;;5000524;28;20607;-75
2022/07/20 02:16:59;;;;;;;50.05;27.48;;;23.80;99.90;;;;;;5009698;28;20040;-75
2022/07/20 02:19:25;;;;;;;50.58;27.42;;;23.80;99.90;;;;;;5002429;28;20451;-74
2022/07/20 02:21:50;;;;;;;50.38;27.42;;;23.80;99.90;;;;;;5003664;28;20109;-75
2022/07/20 02:24:16;;;;;;;46.05;27.65;;;23.80;99.90;;;;;;5008776;28;20030;-74
2022/07/20 02:26:41;;;;;;;52.90;29.35;;;23.70;99.90;;;;;;5000004;28;20046;-74
2022/07/20 02:29:07;;;;;;;50.92;28.75;;;23.70;99.90;;;;;;5007873;28;20101;-75
2022/07/20 02:31:33;;;;;;;50.53;29.33;;;23.70;99.90;;;;;;5007766;28;20089;-75
2022/07/20 02:33:58;;;;;;;56.33;29.83;;;23.70;99.90;;;;;;5005617;28;20028;-75
2022/07/20 02:36:24;;;;;;;51.45;29.35;;;23.70;99.90;;;;;;4995216;28;20030;-74
2022/07/20 02:38:49;;;;;;;54.90;29.67;;;23.60;99.90;;;;;;5010493;28;20540;-74
2022/07/20 02:41:15;;;;;;;56.40;30.77;;;23.60;99.90;;;;;;5010716;28;20544;-75
2022/07/20 02:43:41;;;;;;;49.13;30.77;;;23.60;99.90;;;;;;4999073;28;20031;-75
2022/07/20 02:46:06;;;;;;;51.42;29.45;;;23.60;99.90;;;;;;5006244;28;20393;-75
2022/07/20 02:48:32;;;;;;;55.50;30.85;;;23.50;99.90;;;;;;5013270;28;20033;-75
2022/07/20 02:50:57;;;;;;;54.58;31.55;;;23.50;99.90;;;;;;5005670;28;20018;-75
2022/07/20 02:53:23;;;;;;;50.78;31.52;;;23.50;99.90;;;;;;5008697;28;20467;-74
2022/07/20 02:55:49;;;;;;;58.08;31.77;;;23.50;99.90;;;;;;4999607;28;20023;-74
2022/07/20 02:58:14;;;;;;;55.85;32.95;;;23.50;99.90;;;;;;5007573;28;20030;-75
2022/07/20 03:00:41;;;;;;;53.95;31.13;;;23.40;99.90;;;;;;5012455;28;20104;-75
2022/07/20 03:03:07;;;;;;;56.60;33.00;;;23.40;99.90;;;;;;5008668;28;20105;-75
2022/07/20 03:05:34;;;;;;;57.63;34.42;;;23.40;99.90;;;;;;5010898;28;20498;-76
2022/07/20 03:07:59;;;;;;;60.17;34.53;;;23.40;99.90;;;;;;5001078;28;20018;-75
2022/07/20 03:10:25;;;;;;;58.75;34.03;;;23.40;99.90;;;;;;4999881;28;20518;-76
2022/07/20 03:12:51;;;;;;;66.00;34.70;;;23.30;99.90;;;;;;5012186;28;20113;-76
2022/07/20 03:15:17;;;;;;;63.65;35.42;;;23.40;99.90;;;;;;5011369;28;20484;-76
2022/07/20 03:17:49;;;;;;;61.15;35.00;;;23.30;99.90;;;;;;4997986;28;20330;-75
2022/07/20 03:20:22;;;;;;;65.45;35.08;;;23.30;99.90;;;;;;5003132;28;20064;-75
2022/07/20 03:22:48;;;;;;;60.35;36.15;;;23.30;99.90;;;;;;5001658;28;20129;-75
2022/07/20 03:25:14;;;;;;;62.42;37.13;;;23.30;99.90;;;;;;4994210;28;20520;-76
2022/07/20 03:27:39;;;;;;;62.50;36.38;;;23.20;99.90;;;;;;5010239;28;20125;-75
2022/07/20 03:30:06;;;;;;;63.10;36.88;;;23.20;99.90;;;;;;5012188;28;20437;-75
2022/07/20 03:32:32;;;;;;;67.05;36.33;;;23.20;99.90;;;;;;4995219;28;20046;-75
2022/07/20 03:34:58;;;;;;;63.72;35.58;;;23.20;99.90;;;;;;5001134;28;20057;-75
2022/07/20 03:37:24;;;;;;;60.80;36.28;;;23.20;99.90;;;;;;5009727;28;20422;-75
2022/07/20 03:39:50;;;;;;;64.43;36.47;;;23.10;99.90;;;;;;5002697;28;20037;-75
2022/07/20 03:42:15;;;;;;;61.60;35.75;;;23.10;99.90;;;;;;5008124;28;20344;-75
2022/07/20 03:44:41;;;;;;;69.43;37.15;;;23.10;99.90;;;;;;5011621;28;20394;-76
2022/07/20 03:47:06;;;;;;;63.67;37.10;;;23.10;99.90;;;;;;5010671;28;20030;-75
2022/07/20 03:49:32;;;;;;;64.85;36.75;;;23.10;99.90;;;;;;5007896;28;20041;-75
2022/07/20 03:51:58;;;;;;;63.83;36.03;;;23.20;99.90;;;;;;5009151;28;20472;-75
2022/07/20 03:54:23;;;;;;;60.00;36.10;;;23.20;99.90;;;;;;5005181;28;20026;-75
2022/07/20 03:56:49;;;;;;;59.30;36.85;;;23.20;99.90;;;;;;5009950;28;20486;-74
2022/07/20 03:59:14;;;;;;;58.92;36.63;;;23.10;99.90;;;;;;5008617;28;20038;-75
2022/07/20 04:01:40;;;;;;;65.25;36.72;;;23.10;99.90;;;;;;4994622;28;20109;-74
2022/07/20 04:04:06;;;;;;;63.92;35.80;;;23.20;99.90;;;;;;5002496;28;20033;-75
2022/07/20 04:06:32;;;;;;;61.33;36.22;;;23.20;99.90;;;;;;5009635;28;20128;-75
2022/07/20 04:08:58;;;;;;;58.53;35.05;;;23.20;99.90;;;;;;5006459;28;20049;-74
2022/07/20 04:11:23;;;;;;;61.95;36.80;;;23.20;99.90;;;;;;5006236;28;20041;-75
2022/07/20 04:13:49;;;;;;;62.40;35.38;;;23.30;99.90;;;;;;5008020;28;20711;-74
2022/07/20 04:16:15;;;;;;;58.78;36.80;;;23.30;99.90;;;;;;4994340;28;20046;-75
2022/07/20 04:18:40;;;;;;;56.58;33.97;;;23.30;99.90;;;;;;5010147;28;20053;-75
2022/07/20 04:21:06;;;;;;;58.88;34.80;;;23.30;99.90;;;;;;4997449;28;20117;-75
2022/07/20 04:23:32;;;;;;;56.85;35.20;;;23.30;99.90;;;;;;5006503;28;20022;-75
2022/07/20 04:25:57;;;;;;;63.20;35.95;;;23.30;99.90;;;;;;5010254;28;20048;-75
2022/07/20 04:28:23;;;;;;;60.47;35.00;;;23.40;99.90;;;;;;5000070;28;20030;-75
2022/07/20 04:30:49;;;;;;;62.75;33.90;;;23.40;99.90;;;;;;5006331;28;20037;-75
2022/07/20 04:33:14;;;;;;;56.00;33.45;;;23.50;99.90;;;;;;5002170;28;20397;-74
2022/07/20 04:35:40;;;;;;;65.65;33.45;;;23.50;99.90;;;;;;5009339;28;20081;-75
2022/07/20 04:38:05;;;;;;;51.03;31.90;;;23.50;99.90;;;;;;5008679;28;20026;-75
2022/07/20 04:40:31;;;;;;;59.58;31.08;;;23.50;99.90;;;;;;5002836;28;20057;-75
2022/07/20 04:42:57;;;;;;;44.83;28.90;;;23.50;99.90;;;;;;4997626;28;20108;-75
2022/07/20 04:45:22;;;;;;;48.58;28.52;;;23.60;99.90;;;;;;5004462;28;20018;-75
2022/07/20 04:47:48;;;;;;;44.08;26.88;;;23.60;99.90;;;;;;4997789;28;20038;-75
2022/07/20 04:50:14;;;;;;;45.83;25.88;;;23.60;99.90;;;;;;5000037;28;20023;-75
2022/07/20 04:52:40;;;;;;;40.92;24.20;;;23.60;99.90;;;;;;5004515;28;20065;-75
2022/07/20 04:55:07;;;;;;;39.80;23.88;;;23.70;99.90;;;;;;5010500;28;20030;-75
2022/07/20 04:57:33;;;;;;;45.42;24.52;;;23.70;99.90;;;;;;5010489;28;20386;-74
2022/07/20 04:59:58;;;;;;;40.92;22.75;;;23.70;99.90;;;;;;5004419;28;20014;-75
2022/07/20 05:02:24;;;;;;;32.28;21.05;;;23.70;99.90;;;;;;5002939;28;20573;-75
2022/07/20 05:04:49;;;;;;;35.58;21.88;;;23.70;99.90;;;;;;5010499;28;20042;-75
2022/07/20 05:07:15;;;;;;;36.88;21.40;;;23.70;99.90;;;;;;5003580;28;20100;-75
2022/07/20 05:09:41;;;;;;;36.72;19.88;;;23.70;99.90;;;;;;4995011;28;20033;-75
2022/07/20 05:12:07;;;;;;;33.45;19.83;;;23.70;99.90;;;;;;5003580;28;20026;-75
2022/07/20 05:14:33;;;;;;;36.85;19.35;;;23.60;99.90;;;;;;4999875;28;20057;-74
2022/07/20 05:16:59;;;;;;;28.95;18.48;;;23.60;99.90;;;;;;4995732;28;20030;-75
2022/07/20 05:19:24;;;;;;;36.97;18.67;;;23.60;99.90;;;;;;5005803;28;20070;-74
2022/07/20 05:21:50;;;;;;;30.13;17.48;;;23.60;99.90;;;;;;4997729;28;20031;-75
2022/07/20 05:24:15;;;;;;;34.78;17.70;;;23.50;99.90;;;;;;4994764;28;20501;-75
2022/07/20 05:26:41;;;;;;;35.20;18.05;;;23.50;99.90;;;;;;5006578;28;20061;-75
2022/07/20 05:29:06;;;;;;;28.83;17.00;;;23.50;99.90;;;;;;4997379;28;20070;-75
2022/07/20 05:31:32;;;;;;;35.47;17.20;;;23.50;99.90;;;;;;5009762;28;20041;-75
2022/07/20 05:33:58;;;;;;;31.85;17.35;;;23.50;99.90;;;;;;5009863;28;20112;-75
2022/07/20 05:36:23;;;;;;;35.35;16.83;;;23.50;99.90;;;;;;5001822;28;20399;-74
2022/07/20 05:38:49;;;;;;;36.28;15.77;;;23.50;99.90;;;;;;5002505;28;20022;-75
2022/07/20 05:41:15;;;;;;;29.52;16.95;;;23.50;99.90;;;;;;5008712;28;20061;-75
2022/07/20 05:43:41;;;;;;;33.45;16.92;;;23.50;99.90;;;;;;5013526;28;20498;-75
2022/07/20 05:46:06;;;;;;;35.70;16.27;;;23.50;99.90;;;;;;4998641;28;20099;-75
2022/07/20 05:48:32;;;;;;;30.95;16.90;;;23.50;99.90;;;;;;5004097;28;20109;-76
2022/07/20 05:50:58;;;;;;;30.75;16.55;;;23.50;99.90;;;;;;5007614;28;20030;-75
2022/07/20 05:53:24;;;;;;;34.05;16.73;;;23.50;99.90;;;;;;5013708;28;20554;-75
2022/07/20 05:55:49;;;;;;;33.78;15.75;;;23.50;99.90;;;;;;5007389;28;20023;-75
2022/07/20 05:58:15;;;;;;;30.15;15.93;;;23.60;99.90;;;;;;5005412;28;20455;-74
2022/07/20 06:00:41;;;;;;;36.25;15.98;;;23.60;99.90;;;;;;4995118;28;20108;-75
2022/07/20 06:03:07;;;;;;;32.78;15.45;;;23.60;99.90;;;;;;5009331;28;20034;-74
2022/07/20 06:05:33;;;;;;;33.03;16.10;;;23.60;99.90;;;;;;5008192;28;20435;-76
2022/07/20 06:08:00;;;;;;;29.45;15.93;;;23.60;99.90;;;;;;5011326;28;20030;-75
2022/07/20 06:10:27;;;;;;;32.28;15.45;;;23.70;99.90;;;;;;5003996;28;20080;-74
2022/07/20 06:12:55;;;;;;;32.17;15.77;;;23.80;99.90;;;;;;5008586;28;20022;-75
2022/07/20 06:15:20;;;;;;;26.98;15.82;;;23.80;99.90;;;;;;5002165;28;20072;-75
2022/07/20 06:17:46;;;;;;;30.60;15.30;;;23.90;99.90;;;;;;4994417;28;20426;-75
2022/07/20 06:20:14;;;;;;;32.55;15.27;;;23.90;99.90;;;;;;4997643;28;20442;-75
2022/07/20 06:22:41;;;;;;;28.65;15.30;;;23.90;99.90;;;;;;5004104;28;20037;-75
2022/07/20 06:25:09;;;;;;;26.83;14.15;;;24.00;99.90;;;;;;5012982;28;20041;-75
2022/07/20 06:27:35;;;;;;;27.60;14.98;;;24.00;99.90;;;;;;5002555;28;20057;-75
2022/07/20 06:30:01;;;;;;;32.88;14.77;;;24.00;99.90;;;;;;5008694;28;20026;-77
2022/07/20 06:32:27;;;;;;;25.05;13.85;;;24.00;99.90;;;;;;5006932;28;20041;-75
2022/07/20 06:34:53;;;;;;;30.88;14.63;;;24.00;99.90;;;;;;5009152;28;20018;-76
2022/07/20 06:37:19;;;;;;;29.38;14.90;;;24.00;99.90;;;;;;4994881;28;20034;-75
2022/07/20 06:39:44;;;;;;;30.73;14.18;;;23.90;99.90;;;;;;5006567;28;20490;-75
2022/07/20 06:42:10;;;;;;;33.35;14.65;;;23.90;99.90;;;;;;5011949;28;20025;-76
2022/07/20 06:44:36;;;;;;;27.55;14.40;;;24.00;99.90;;;;;;5012434;28;20099;-76
2022/07/20 06:47:02;;;;;;;27.05;13.02;;;24.00;99.90;;;;;;5008433;28;20026;-75
2022/07/20 06:49:28;;;;;;;27.40;13.38;;;24.00;99.90;;;;;;5004889;28;20394;-75
2022/07/20 06:51:54;;;;;;;31.17;12.82;;;24.00;99.90;;;;;;5010448;28;20036;-76
2022/07/20 06:54:19;;;;;;;28.85;12.57;;;24.00;99.90;;;;;;4998796;28;20058;-76
2022/07/20 06:56:45;;;;;;;25.08;12.63;;;24.10;99.90;;;;;;5012122;28;20069;-77
2022/07/20 06:59:10;;;;;;;24.55;12.43;;;24.10;99.90;;;;;;5006034;28;20062;-75
2022/07/20 07:01:36;;;;;;;33.05;13.05;;;24.10;99.90;;;;;;5008954;28;20129;-75
2022/07/20 07:04:02;;;;;;;26.05;13.02;;;24.10;99.90;;;;;;5009854;28;20034;-77
2022/07/20 07:06:28;;;;;;;26.25;12.60;;;24.10;99.90;;;;;;5003458;28;20025;-75
2022/07/20 07:08:55;;;;;;;28.58;13.23;;;24.10;99.90;;;;;;5011948;28;20080;-76
2022/07/20 07:11:21;;;;;;;28.33;12.50;;;24.10;99.90;;;;;;5011406;28;20034;-75
2022/07/20 07:13:47;;;;;;;25.52;13.57;;;24.10;99.90;;;;;;5012102;28;20022;-75
2022/07/20 07:16:12;;;;;;;27.40;12.15;;;24.10;99.90;;;;;;5003275;28;20029;-75
2022/07/20 07:18:38;;;;;;;27.75;12.80;;;24.10;99.90;;;;;;4993434;28;20037;-75
2022/07/20 07:21:04;;;;;;;20.70;11.68;;;24.10;99.90;;;;;;4997180;28;20053;-75
2022/07/20 07:23:30;;;;;;;23.88;13.02;;;24.10;99.90;;;;;;5008464;28;20037;-75
2022/07/20 07:25:56;;;;;;;27.25;12.35;;;24.10;99.90;;;;;;5007547;28;20165;-75
2022/07/20 07:28:22;;;;;;;27.17;12.90;;;24.20;99.90;;;;;;5002818;28;20056;-75
2022/07/20 07:30:50;;;;;;;25.42;12.30;;;24.20;99.90;;;;;;5011332;28;20381;-75
2022/07/20 07:33:16;;;;;;;22.50;12.00;;;24.30;99.90;;;;;;5026812;28;20439;-76
2022/07/20 07:35:42;;;;;;;26.33;12.50;;;24.30;99.90;;;;;;5000297;28;20068;-75
2022/07/20 07:38:08;;;;;;;27.20;12.38;;;24.30;99.90;;;;;;5011260;28;20018;-75
2022/07/20 07:40:33;;;;;;;28.50;12.23;;;24.40;99.90;;;;;;4998614;28;20038;-75
2022/07/20 07:42:59;;;;;;;22.35;11.55;;;24.50;99.90;;;;;;5010576;28;20033;-75
2022/07/20 07:45:25;;;;;;;22.58;11.57;;;24.60;99.90;;;;;;5011313;28;20022;-75
2022/07/20 07:47:51;;;;;;;19.80;11.30;;;24.70;99.90;;;;;;4997760;28;20038;-76
2022/07/20 07:50:17;;;;;;;24.30;10.95;;;24.80;99.90;;;;;;5010282;28;20029;-75
2022/07/20 07:52:42;;;;;;;22.33;11.02;;;25.00;99.90;;;;;;4999361;28;20379;-74
2022/07/20 07:55:08;;;;;;;24.20;11.15;;;25.20;99.90;;;;;;5011516;28;20402;-75
2022/07/20 07:57:34;;;;;;;25.88;10.63;;;25.30;99.90;;;;;;5006408;28;20033;-75
2022/07/20 08:00:00;;;;;;;22.70;10.35;;;25.50;99.90;;;;;;5010619;28;20548;-75
2022/07/20 08:02:25;;;;;;;22.63;9.82;;;25.60;99.40;;;;;;5002073;28;20419;-76
2022/07/20 08:04:51;;;;;;;23.15;9.73;;;25.60;98.00;;;;;;5003425;28;20053;-76
2022/07/20 08:07:16;;;;;;;23.33;9.93;;;25.60;97.50;;;;;;5002934;28;20469;-75
2022/07/20 08:09:42;;;;;;;27.00;9.18;;;25.60;97.00;;;;;;5000005;28;20033;-75
2022/07/20 08:12:08;;;;;;;22.02;8.55;;;25.70;96.10;;;;;;5011646;28;20022;-76
2022/07/20 08:14:33;;;;;;;22.17;8.65;;;25.80;95.80;;;;;;4998042;28;20018;-75
2022/07/20 08:16:59;;;;;;;12.48;6.70;;;25.90;95.40;;;;;;5009449;28;20026;-75
2022/07/20 08:19:25;;;;;;;17.73;6.22;;;25.90;93.80;;;;;;5010521;28;20060;-74
2022/07/20 08:21:51;;;;;;;18.90;6.43;;;25.80;93.30;;;;;;4998569;28;20027;-75
2022/07/20 08:24:16;;;;;;;13.43;6.28;;;25.80;92.50;;;;;;5009528;28;20022;-74
2022/07/20 08:26:43;;;;;;;19.98;7.20;;;25.70;92.10;;;;;;4997010;28;20512;-74
2022/07/20 08:29:09;;;;;;;28.48;17.45;;;25.70;92.20;;;;;;5002728;28;20117;-74
2022/07/20 08:31:34;;;;;;;17.52;7.70;;;25.80;92.10;;;;;;5002569;28;20490;-76
2022/07/20 08:34:00;;;;;;;16.92;6.88;;;25.70;92.00;;;;;;5019595;28;20022;-74
2022/07/20 08:36:26;;;;;;;19.55;6.38;;;25.70;92.10;;;;;;5004142;28;20014;-75
2022/07/20 08:38:51;;;;;;;17.25;8.85;;;25.80;92.20;;;;;;5001945;28;20121;-76
2022/07/20 08:41:17;;;;;;;20.90;9.43;;;25.80;92.10;;;;;;5003331;28;20425;-76
2022/07/20 08:43:43;;;;;;;44.97;31.65;;;25.80;92.20;;;;;;5003340;28;20052;-75
2022/07/20 08:46:10;;;;;;;16.83;6.43;;;25.80;92.50;;;;;;5001769;28;20450;-75
2022/07/20 08:48:36;;;;;;;15.80;5.88;;;25.80;92.60;;;;;;5001198;28;20022;-74
2022/07/20 08:51:02;;;;;;;17.20;6.10;;;25.80;92.70;;;;;;4998826;28;20038;-75
2022/07/20 08:53:28;;;;;;;16.55;5.93;;;25.80;92.80;;;;;;5003682;28;20030;-76
2022/07/20 08:55:53;;;;;;;13.18;5.35;;;25.60;92.90;;;;;;4997241;28;20049;-75
2022/07/20 08:58:19;;;;;;;16.85;6.20;;;25.60;93.10;;;;;;5006601;28;20045;-75
2022/07/20 09:00:45;;;;;;;16.70;6.60;;;25.60;93.20;;;;;;5001511;28;20022;-75
2022/07/20 09:03:12;;;;;;;13.35;6.30;;;25.50;93.40;;;;;;4997082;28;20034;-74
2022/07/20 09:05:39;;;;;;;17.83;6.97;;;25.50;93.60;;;;;;4993104;28;20522;-75
2022/07/20 09:08:09;;;;;;;19.30;7.38;;;25.40;93.90;;;;;;4997211;28;20465;-75
2022/07/20 09:10:38;;;;;;;20.40;8.15;;;25.30;93.90;;;;;;4998732;28;20053;-76
2022/07/20 09:13:12;;;;;;;21.73;8.30;;;25.30;94.20;;;;;;5009555;28;20486;-75
2022/07/20 09:15:53;;;;;;;20.63;7.85;;;25.30;94.40;;;;;;5006410;28;20026;-74
2022/07/20 09:18:30;;;;;;;17.27;8.98;;;25.30;94.60;;;;;;4997305;28;20034;-76
2022/07/20 09:20:58;;;;;;;22.92;8.50;;;25.40;94.70;;;;;;5002093;28;20042;-75
2022/07/20 09:23:31;;;;;;;15.45;8.10;;;25.50;94.80;;;;;;5009461;28;20121;-75
2022/07/20 09:26:00;;;;;;;23.63;14.05;;;25.70;94.80;;;;;;5002123;28;20061;-74
2022/07/20 09:28:39;;;;;;;23.73;12.55;;;25.80;94.60;;;;;;4999511;28;20025;-74
2022/07/20 09:31:26;;;;;;;26.98;11.05;;;26.10;94.50;;;;;;5005130;28;20490;-76
2022/07/20 09:33:54;;;;;;;24.80;14.02;;;26.30;93.80;;;;;;4999218;28;20430;-75
2022/07/20 09:36:23;;;;;;;21.10;14.00;;;26.40;93.50;;;;;;5005875;28;20021;-75
2022/07/20 09:38:49;;;;;;;25.42;11.57;;;26.50;93.10;;;;;;5009606;28;20065;-76
2022/07/20 09:41:21;;;;;;;21.27;10.60;;;26.50;92.70;;;;;;5002102;28;20026;-76
2022/07/20 09:43:46;;;;;;;19.55;9.57;;;26.50;92.80;;;;;;5014009;28;20137;-75
2022/07/20 09:46:27;;;;;;;16.13;9.82;;;26.60;92.80;;;;;;5010730;28;20506;-75
2022/07/20 09:48:57;;;;;;;16.92;9.20;;;26.60;92.90;;;;;;5013910;28;20113;-76
2022/07/20 09:51:28;;;;;;;20.63;9.40;;;26.70;92.70;;;;;;5013397;28;20025;-75
2022/07/20 09:53:56;;;;;;;18.05;8.75;;;26.60;92.60;;;;;;5013883;28;20042;-76
2022/07/20 09:56:23;;;;;;;17.60;7.60;;;26.60;92.80;;;;;;5013584;28;20386;-76
2022/07/20 09:58:52;;;;;;;15.75;6.78;;;26.50;93.00;;;;;;5014018;28;20018;-76
2022/07/20 10:01:23;;;;;;;14.02;6.50;;;26.50;92.80;;;;;;5009728;28;20112;-74
2022/07/20 10:03:51;;;;;;;12.43;5.88;;;26.30;92.20;;;;;;5013634;28;20037;-76
2022/07/20 10:06:18;;;;;;;12.70;6.07;;;26.10;92.50;;;;;;5013587;28;20053;-76
2022/07/20 10:08:44;;;;;;;13.65;5.93;;;25.90;92.70;;;;;;5013143;28;20029;-77
2022/07/20 10:11:11;;;;;;;17.05;6.18;;;25.80;93.10;;;;;;5012648;28;20482;-75
2022/07/20 10:13:38;;;;;;;16.52;6.05;;;25.60;93.40;;;;;;5013114;28;20018;-75
2022/07/20 10:16:22;;;;;;;11.05;5.20;;;25.50;93.90;;;;;;5005671;28;20034;-76
2022/07/20 10:18:47;;;;;;;18.55;5.95;;;25.60;94.60;;;;;;4995335;28;20034;-76
2022/07/20 10:21:51;;;;;;;14.63;6.20;;;25.50;94.50;;;;;;5012550;28;20394;-76
2022/07/20 10:24:18;;;;;;;16.30;6.50;;;25.30;94.60;;;;;;5012836;28;20113;-76
2022/07/20 10:26:45;;;;;;;12.88;6.00;;;25.20;95.00;;;;;;5012342;28;20033;-76
2022/07/20 10:29:24;;;;;;;14.07;6.43;;;25.10;95.60;;;;;;5012113;28;20025;-75
2022/07/20 10:31:51;;;;;;;15.20;6.55;;;25.20;95.90;;;;;;5005461;28;20060;-75
2022/07/20 10:34:44;;;;;;;16.45;6.57;;;25.20;96.00;;;;;;5012517;28;20072;-76
2022/07/20 10:37:26;;;;;;;16.67;6.57;;;25.40;96.00;;;;;;4999017;28;20038;-75
2022/07/20 10:40:12;;;;;;;14.77;7.32;;;25.50;96.50;;;;;;4998535;28;20049;-76
2022/07/20 10:42:42;;;;;;;15.55;7.13;;;25.70;96.50;;;;;;5012345;28;20125;-75
2022/07/20 10:45:16;;;;;;;19.90;7.78;;;25.80;96.40;;;;;;5012560;28;20112;-76
2022/07/20 10:47:44;;;;;;;17.57;8.37;;;26.00;96.40;;;;;;5012736;28;20446;-76
2022/07/20 10:50:29;;;;;;;18.30;8.32;;;26.10;96.20;;;;;;5010998;28;20109;-76
2022/07/20 10:53:17;;;;;;;21.30;8.77;;;26.00;95.60;;;;;;5012720;28;20036;-75
2022/07/20 10:55:51;;;;;;;18.23;8.52;;;25.80;96.10;;;;;;5011808;28;20100;-76
2022/07/20 10:58:29;;;;;;;16.83;7.82;;;25.60;96.30;;;;;;5011103;28;20382;-75
2022/07/20 11:01:02;;;;;;;21.35;9.85;;;25.40;97.30;;;;;;4997435;28;20068;-75
2022/07/20 11:03:31;;;;;;;18.33;8.65;;;25.20;98.40;;;;;;5002613;28;20116;-76
2022/07/20 11:06:19;;;;;;;18.13;8.80;;;25.00;99.70;;;;;;5009498;28;20025;-76
2022/07/20 11:08:56;;;;;;;25.10;9.48;;;24.80;99.90;;;;;;4999846;28;20030;-75
2022/07/20 11:11:24;;;;;;;17.88;8.93;;;24.60;99.90;;;;;;5012386;28;20022;-76
2022/07/20 11:13:50;;;;;;;19.50;9.07;;;24.40;99.90;;;;;;5009743;28;20026;-76
2022/07/20 11:16:22;;;;;;;17.73;8.32;;;24.20;99.90;;;;;;4992461;28;20022;-76
2022/07/20 11:18:49;;;;;;;17.33;9.02;;;24.20;99.90;;;;;;4996837;28;20026;-75
2022/07/20 11:21:15;;;;;;;13.98;8.35;;;24.10;99.90;;;;;;5012334;28;20038;-75
2022/07/20 11:23:42;;;;;;;14.65;8.00;;;24.10;99.90;;;;;;5008520;28;20041;-75
2022/07/20 11:26:08;;;;;;;18.05;8.98;;;24.10;99.90;;;;;;5004880;28;20490;-76
2022/07/20 11:28:36;;;;;;;18.67;9.23;;;24.10;99.90;;;;;;5009495;28;20038;-76
2022/07/20 11:31:03;;;;;;;18.60;9.00;;;24.10;99.90;;;;;;4998054;28;20030;-75
2022/07/20 11:33:31;;;;;;;20.27;9.10;;;24.30;99.90;;;;;;4992518;28;20045;-76
2022/07/20 11:36:04;;;;;;;21.52;10.02;;;24.50;99.90;;;;;;4995105;28;20117;-76
2022/07/20 11:38:59;;;;;;;17.70;9.63;;;24.70;99.90;;;;;;5001057;28;20065;-76
2022/07/20 11:41:30;;;;;;;18.77;9.02;;;24.90;99.90;;;;;;4992167;28;20019;-76
2022/07/20 11:43:57;;;;;;;15.65;9.27;;;25.10;99.90;;;;;;5004130;28;20397;-76
2022/07/20 11:46:25;;;;;;;20.00;9.25;;;25.30;99.90;;;;;;4992007;28;20045;-77
2022/07/20 11:49:02;;;;;;;19.30;9.55;;;25.50;99.90;;;;;;4992617;28;20437;-76
2022/07/20 11:51:30;;;;;;;18.13;9.80;;;25.70;99.90;;;;;;4991765;28;20026;-76
2022/07/20 11:53:56;;;;;;;16.85;9.48;;;25.80;99.90;;;;;;4992169;28;20370;-75
2022/07/20 11:56:24;;;;;;;17.02;9.00;;;25.90;99.90;;;;;;4992971;28;20019;-76
2022/07/20 11:58:52;;;;;;;19.58;9.80;;;26.00;99.90;;;;;;4992346;28;20065;-75
2022/07/20 12:01:27;;;;;;;20.48;10.40;;;26.10;99.90;;;;;;4991644;28;20029;-76
2022/07/20 12:03:59;;;;;;;19.73;10.20;;;26.20;99.30;;;;;;4997267;28;20076;-76
2022/07/20 12:06:30;;;;;;;17.13;9.60;;;26.20;99.20;;;;;;4999872;28;20037;-75
2022/07/20 12:09:13;;;;;;;17.63;9.90;;;26.20;99.10;;;;;;4999996;28;20026;-76
2022/07/20 12:11:57;;;;;;;21.13;10.48;;;26.20;98.90;;;;;;4996727;28;20069;-76
2022/07/20 12:14:32;;;;;;;20.45;10.88;;;26.20;98.70;;;;;;5005722;28;20033;-75
2022/07/20 12:17:16;;;;;;;19.25;10.18;;;26.20;97.90;;;;;;5010516;28;20036;-75
2022/07/20 12:19:43;;;;;;;19.25;10.23;;;26.20;97.70;;;;;;5006384;28;20105;-76
2022/07/20 12:22:23;;;;;;;18.52;9.90;;;26.00;97.90;;;;;;5006295;28;20049;-76
2022/07/20 12:24:59;;;;;;;20.52;9.95;;;25.90;97.80;;;;;;5011385;28;20105;-75
2022/07/20 12:27:30;;;;;;;15.75;10.15;;;25.90;98.20;;;;;;5005324;28;20054;-75
2022/07/20 12:29:57;;;;;;;17.42;10.60;;;25.80;98.30;;;;;;5011414;28;20088;-76
2022/07/20 12:32:40;;;;;;;20.17;10.40;;;25.70;98.10;;;;;;5010936;28;20037;-76
2022/07/20 12:35:06;;;;;;;18.08;10.23;;;25.70;98.10;;;;;;5007661;28;20025;-76